Terminal Aerodrome Forecast
Issued by NWS

Home | Current Version | Previous Version | Text Only | Print | Product List | Glossary On
Versions: 1 2 3 4 5 6 7 8 9 10 11 12 13 14 15 16 17 18 19 20 21 22 23 24 25 26 27
000
FTUS45 KPIH 210601 AAA
TAFSUN
TAF AMD
KSUN 210601Z 2106/2206 VRB06KT 1 1/2SM -SN BR OVC009
     FM210700 VRB06KT 1SM -SN BR BKN005 OVC015
     FM211200 VRB06KT 3SM -SHSN BKN005 OVC010
     FM211800 21008KT 6SM BR BKN020 OVC030
     FM220200 32006KT P6SM SCT030
      AMD LTD TO CLD VIS AND WIND TIL 211400=

USA.gov is the U.S. government's official web portal to all federal, state and local government web resources and services.